Time;durP1;ratioP1;P1;durP2;ratioP2;P2;SDS_P1;SDS_P2;PMS_P1;PMS_P2;Temp;Humidity;BMP_temperature;BMP_pressure;BME280_temperature;BME280_humidity;BME280_pressure;Samples;Min_cycle;Max_cycle;Signal;HPM_P1;HPM_P2
2023/04/16 00:02:00;;;;;;;16.40;3.67;;;;;;;;;;5039826;28;20032;-71
2023/04/16 00:04:28;;;;;;;24.60;4.57;;;;;;;;;;5037497;28;20552;-72
2023/04/16 00:06:53;;;;;;;21.50;3.97;;;;;;;;;;5038400;28;20312;-72
2023/04/16 00:09:18;;;;;;;20.58;4.78;;;;;;;;;;5038546;28;20048;-71
2023/04/16 00:11:44;;;;;;;31.33;5.43;;;;;;;;;;5035544;28;20050;-73
2023/04/16 00:14:09;;;;;;;28.40;5.45;;;;;;;;;;5037938;28;20507;-73
2023/04/16 00:16:35;;;;;;;17.98;5.38;;;;;;;;;;5041699;28;20036;-74
2023/04/16 00:19:00;;;;;;;24.67;6.07;;;;;;;;;;5017172;28;20489;-73
2023/04/16 00:21:25;;;;;;;22.38;6.72;;;;;;;;;;5036729;28;20052;-72
2023/04/16 00:23:50;;;;;;;29.48;6.35;;;;;;;;;;5040834;28;20360;-70
2023/04/16 00:26:16;;;;;;;37.75;7.32;;;;;;;;;;5026585;28;20384;-70
2023/04/16 00:28:42;;;;;;;25.10;6.57;;;;;;;;;;5044033;28;20746;-70
2023/04/16 00:31:10;;;;;;;33.63;7.22;;;;;;;;;;5046225;28;20036;-71
2023/04/16 00:33:37;;;;;;;28.85;7.00;;;;;;;;;;5043408;28;20785;-71
2023/04/16 00:36:05;;;;;;;29.98;7.57;;;;;;;;;;5043100;28;20149;-72
2023/04/16 00:38:31;;;;;;;29.63;7.10;;;;;;;;;;5043941;28;20047;-72
2023/04/16 00:40:57;;;;;;;29.65;7.78;;;;;;;;;;5044102;28;20597;-75
2023/04/16 00:43:24;;;;;;;28.08;7.78;;;;;;;;;;5044482;28;20056;-72
2023/04/16 00:45:49;;;;;;;23.23;7.40;;;;;;;;;;5044966;28;20052;-71
2023/04/16 00:48:17;;;;;;;21.65;5.90;;;;;;;;;;4994310;28;20505;-73
2023/04/16 00:50:43;;;;;;;25.75;7.05;;;;;;;;;;5043894;28;20047;-73
2023/04/16 00:53:08;;;;;;;31.05;7.43;;;;;;;;;;5011159;28;20186;-71
2023/04/16 00:55:33;;;;;;;25.17;6.45;;;;;;;;;;5047016;28;20032;-73
2023/04/16 00:57:59;;;;;;;33.05;6.65;;;;;;;;;;5027438;28;20136;-72
2023/04/16 01:00:25;;;;;;;37.35;7.00;;;;;;;;;;5042925;28;20287;-72
2023/04/16 01:02:52;;;;;;;42.20;7.40;;;;;;;;;;5043784;28;20040;-73
2023/04/16 01:05:17;;;;;;;32.88;7.15;;;;;;;;;;5026679;28;20044;-72
2023/04/16 01:07:42;;;;;;;33.47;7.03;;;;;;;;;;5045948;28;20125;-72
2023/04/16 01:10:08;;;;;;;27.83;6.90;;;;;;;;;;5042447;28;20028;-72
2023/04/16 01:12:35;;;;;;;28.73;7.60;;;;;;;;;;5022323;28;20117;-71
2023/04/16 01:15:01;;;;;;;27.83;6.47;;;;;;;;;;5024675;28;20281;-73
2023/04/16 01:17:29;;;;;;;27.33;7.70;;;;;;;;;;5042398;28;20044;-72
2023/04/16 01:19:57;;;;;;;29.52;7.13;;;;;;;;;;5024525;28;20200;-72
2023/04/16 01:22:22;;;;;;;30.95;6.80;;;;;;;;;;5044652;28;20043;-74
2023/04/16 01:24:50;;;;;;;30.67;6.47;;;;;;;;;;5042334;28;20238;-73
2023/04/16 01:27:15;;;;;;;19.52;6.35;;;;;;;;;;5040974;28;20661;-73
2023/04/16 01:29:43;;;;;;;28.50;6.18;;;;;;;;;;5022616;28;20052;-73
2023/04/16 01:32:08;;;;;;;21.35;5.85;;;;;;;;;;5044323;28;20040;-72
2023/04/16 01:34:36;;;;;;;32.70;6.55;;;;;;;;;;5006343;28;20436;-74
2023/04/16 01:37:04;;;;;;;24.50;6.00;;;;;;;;;;5022753;28;20453;-72
2023/04/16 01:39:31;;;;;;;35.35;6.95;;;;;;;;;;5044738;28;20594;-74
2023/04/16 01:41:56;;;;;;;22.38;6.28;;;;;;;;;;5045342;28;20200;-74
2023/04/16 01:44:22;;;;;;;22.05;5.43;;;;;;;;;;5041012;28;20040;-72
2023/04/16 01:46:47;;;;;;;30.98;6.35;;;;;;;;;;5041378;28;20368;-74
2023/04/16 01:49:12;;;;;;;21.50;5.72;;;;;;;;;;5039673;28;20051;-71
2023/04/16 01:51:38;;;;;;;30.25;5.85;;;;;;;;;;5006912;28;20050;-69
2023/04/16 01:54:05;;;;;;;21.10;5.82;;;;;;;;;;5039348;28;20053;-71
2023/04/16 01:56:31;;;;;;;21.55;5.40;;;;;;;;;;5038794;28;20055;-69
2023/04/16 01:58:56;;;;;;;28.27;6.40;;;;;;;;;;5038728;28;20161;-70
2023/04/16 02:01:21;;;;;;;22.92;5.38;;;;;;;;;;5037990;28;20036;-70
2023/04/16 02:03:46;;;;;;;28.98;6.13;;;;;;;;;;5038699;28;20186;-70
2023/04/16 02:06:12;;;;;;;23.63;5.45;;;;;;;;;;5039188;28;20131;-71
2023/04/16 02:08:37;;;;;;;29.52;5.50;;;;;;;;;;5060857;28;20040;-71
2023/04/16 02:11:04;;;;;;;25.70;5.25;;;;;;;;;;5060174;28;20060;-71
2023/04/16 02:13:29;;;;;;;32.53;6.15;;;;;;;;;;5057994;28;20111;-70
2023/04/16 02:15:55;;;;;;;28.35;4.57;;;;;;;;;;5038623;28;20225;-72
2023/04/16 02:18:20;;;;;;;26.73;5.20;;;;;;;;;;5041267;28;20067;-70
2023/04/16 02:20:46;;;;;;;29.27;5.20;;;;;;;;;;5043147;28;20071;-72
2023/04/16 02:23:13;;;;;;;27.00;5.32;;;;;;;;;;5060378;28;20310;-71
2023/04/16 02:25:43;;;;;;;26.05;4.97;;;;;;;;;;5058600;28;20040;-70
2023/04/16 02:28:09;;;;;;;27.60;5.38;;;;;;;;;;5059271;28;20082;-71
2023/04/16 02:30:38;;;;;;;25.20;4.82;;;;;;;;;;5039588;28;20036;-70
2023/04/16 02:33:07;;;;;;;19.60;5.07;;;;;;;;;;5060441;28;20311;-70
2023/04/16 02:35:33;;;;;;;27.33;4.68;;;;;;;;;;5037014;28;20078;-68
2023/04/16 02:37:59;;;;;;;21.98;4.35;;;;;;;;;;5040639;28;20040;-70
2023/04/16 02:40:25;;;;;;;24.77;5.10;;;;;;;;;;5060813;28;20040;-69
2023/04/16 02:42:51;;;;;;;25.30;5.13;;;;;;;;;;5056927;28;20032;-69
2023/04/16 02:45:16;;;;;;;25.20;4.45;;;;;;;;;;5038231;28;20059;-71
2023/04/16 02:47:44;;;;;;;19.42;4.38;;;;;;;;;;5058584;28;20062;-67
2023/04/16 02:50:09;;;;;;;22.40;4.18;;;;;;;;;;5061004;28;20063;-71
2023/04/16 02:52:35;;;;;;;19.65;4.30;;;;;;;;;;5059909;28;22330;-69
2023/04/16 02:55:00;;;;;;;18.67;4.32;;;;;;;;;;5035544;28;20540;-70
2023/04/16 02:57:25;;;;;;;25.15;4.50;;;;;;;;;;5057626;28;20109;-69
2023/04/16 02:59:50;;;;;;;21.30;5.00;;;;;;;;;;5037295;28;20032;-73
2023/04/16 03:02:16;;;;;;;23.35;4.78;;;;;;;;;;5058499;28;20378;-68
2023/04/16 03:04:43;;;;;;;30.27;5.28;;;;;;;;;;5059320;28;20320;-69
2023/04/16 03:07:10;;;;;;;24.65;5.40;;;;;;;;;;5040265;28;20032;-69
2023/04/16 03:09:35;;;;;;;22.48;5.22;;;;;;;;;;5038579;28;20047;-69
2023/04/16 03:12:03;;;;;;;27.85;5.75;;;;;;;;;;5036954;28;20036;-69
2023/04/16 03:14:29;;;;;;;22.98;5.43;;;;;;;;;;5056805;28;20036;-70
2023/04/16 03:16:54;;;;;;;18.90;4.82;;;;;;;;;;5058438;28;20150;-68
2023/04/16 03:19:19;;;;;;;23.30;4.95;;;;;;;;;;5055403;28;20036;-68
2023/04/16 03:21:45;;;;;;;19.73;5.18;;;;;;;;;;5060048;28;20163;-68
2023/04/16 03:24:10;;;;;;;23.63;4.53;;;;;;;;;;5010206;28;20068;-69
2023/04/16 03:26:38;;;;;;;21.83;5.53;;;;;;;;;;5058243;28;20047;-67
2023/04/16 03:29:03;;;;;;;18.17;5.30;;;;;;;;;;5056270;28;20052;-68
2023/04/16 03:31:28;;;;;;;26.35;5.18;;;;;;;;;;5057829;28;20097;-67
2023/04/16 03:33:54;;;;;;;21.48;4.93;;;;;;;;;;5040482;28;20036;-68
2023/04/16 03:36:19;;;;;;;23.20;5.78;;;;;;;;;;5061158;28;20044;-69
2023/04/16 03:38:47;;;;;;;27.50;4.80;;;;;;;;;;5058677;28;20494;-68
2023/04/16 03:41:12;;;;;;;27.13;4.93;;;;;;;;;;5057753;28;20410;-69
2023/04/16 03:43:37;;;;;;;20.73;5.30;;;;;;;;;;5058913;28;20112;-69
2023/04/16 03:46:02;;;;;;;19.88;4.60;;;;;;;;;;5042332;28;20067;-69
2023/04/16 03:48:30;;;;;;;22.83;5.97;;;;;;;;;;5055447;28;20072;-68
2023/04/16 03:50:58;;;;;;;18.70;4.78;;;;;;;;;;5052407;28;20079;-67
2023/04/16 03:53:23;;;;;;;19.88;5.70;;;;;;;;;;5055338;28;20213;-69
2023/04/16 03:55:50;;;;;;;23.73;4.55;;;;;;;;;;5056731;28;20048;-69
2023/04/16 03:58:15;;;;;;;16.27;4.55;;;;;;;;;;5039712;28;20256;-67
2023/04/16 04:00:41;;;;;;;24.15;5.05;;;;;;;;;;5059668;28;20032;-69
2023/04/16 04:03:12;;;;;;;20.55;5.03;;;;;;;;;;5039633;28;20097;-70
2023/04/16 04:05:40;;;;;;;30.00;5.10;;;;;;;;;;5059924;28;20146;-68
2023/04/16 04:08:08;;;;;;;21.98;4.65;;;;;;;;;;5041546;28;20493;-68
2023/04/16 04:10:34;;;;;;;19.50;5.05;;;;;;;;;;5039636;28;20028;-67
2023/04/16 04:13:00;;;;;;;19.92;5.15;;;;;;;;;;5056774;28;20028;-68
2023/04/16 04:15:25;;;;;;;22.77;6.03;;;;;;;;;;5044054;28;20203;-68
2023/04/16 04:17:50;;;;;;;30.05;6.30;;;;;;;;;;5047049;28;20396;-69
2023/04/16 04:20:16;;;;;;;25.65;5.68;;;;;;;;;;5016537;28;20123;-68
2023/04/16 04:22:43;;;;;;;17.83;6.10;;;;;;;;;;5043242;28;20284;-68
2023/04/16 04:25:09;;;;;;;24.80;5.75;;;;;;;;;;5040029;28;20044;-69
2023/04/16 04:27:34;;;;;;;25.38;6.47;;;;;;;;;;5042145;28;20028;-69
2023/04/16 04:30:03;;;;;;;23.42;6.10;;;;;;;;;;5043832;28;20556;-69
2023/04/16 04:32:28;;;;;;;27.15;6.55;;;;;;;;;;5038973;28;20079;-69
2023/04/16 04:34:56;;;;;;;27.05;6.90;;;;;;;;;;5041968;28;20569;-69
2023/04/16 04:37:21;;;;;;;32.58;7.25;;;;;;;;;;5041404;28;20025;-69
2023/04/16 04:39:46;;;;;;;24.15;6.85;;;;;;;;;;5033824;28;20112;-69
2023/04/16 04:42:11;;;;;;;25.95;7.05;;;;;;;;;;5041328;28;20405;-69
2023/04/16 04:44:36;;;;;;;21.20;7.00;;;;;;;;;;5039223;28;20400;-70
2023/04/16 04:47:02;;;;;;;26.50;6.30;;;;;;;;;;5042697;28;20040;-69
2023/04/16 04:49:27;;;;;;;23.45;6.28;;;;;;;;;;5038044;28;20048;-66
2023/04/16 04:51:52;;;;;;;29.60;7.38;;;;;;;;;;5054801;28;20080;-69
2023/04/16 04:54:17;;;;;;;26.73;6.88;;;;;;;;;;5040531;28;20504;-69
2023/04/16 04:56:46;;;;;;;33.97;7.68;;;;;;;;;;5040234;28;20424;-69
2023/04/16 04:59:16;;;;;;;26.00;7.68;;;;;;;;;;5039579;28;20166;-69
2023/04/16 05:01:41;;;;;;;22.88;7.30;;;;;;;;;;5038255;28;20037;-68
2023/04/16 05:04:06;;;;;;;22.95;7.47;;;;;;;;;;5037278;28;20382;-68
2023/04/16 05:06:34;;;;;;;22.30;7.72;;;;;;;;;;5039254;28;20101;-67
2023/04/16 05:08:59;;;;;;;25.10;7.90;;;;;;;;;;5039884;28;20123;-70
2023/04/16 05:11:25;;;;;;;28.67;8.20;;;;;;;;;;5037949;28;20535;-69
2023/04/16 05:13:50;;;;;;;24.58;7.28;;;;;;;;;;5041625;28;20142;-68
2023/04/16 05:16:16;;;;;;;24.77;7.30;;;;;;;;;;5038472;28;20380;-70
2023/04/16 05:18:41;;;;;;;29.60;8.35;;;;;;;;;;5054308;28;20119;-72
2023/04/16 05:21:09;;;;;;;29.08;8.32;;;;;;;;;;5063854;28;20074;-70
2023/04/16 05:23:34;;;;;;;26.63;8.10;;;;;;;;;;5045636;28;20072;-73
2023/04/16 05:25:59;;;;;;;27.45;7.95;;;;;;;;;;5063449;28;20111;-73
2023/04/16 05:28:24;;;;;;;25.92;8.18;;;;;;;;;;5062031;28;20063;-72
2023/04/16 05:30:50;;;;;;;26.30;9.50;;;;;;;;;;5039500;28;20036;-71
2023/04/16 05:33:18;;;;;;;31.60;9.18;;;;;;;;;;5041736;28;20036;-71
2023/04/16 05:35:43;;;;;;;36.47;9.38;;;;;;;;;;5040788;28;20040;-72
2023/04/16 05:38:09;;;;;;;26.40;9.18;;;;;;;;;;5038570;28;20264;-72
2023/04/16 05:40:34;;;;;;;22.30;8.85;;;;;;;;;;5056169;28;20087;-71
2023/04/16 05:42:59;;;;;;;24.92;8.90;;;;;;;;;;5055178;28;20032;-71
2023/04/16 05:45:25;;;;;;;21.55;9.25;;;;;;;;;;5037953;28;20635;-71
2023/04/16 05:47:50;;;;;;;26.75;9.75;;;;;;;;;;5059167;28;20043;-73
2023/04/16 05:50:17;;;;;;;28.48;8.25;;;;;;;;;;5057434;28;20035;-71
2023/04/16 05:52:43;;;;;;;26.80;8.32;;;;;;;;;;5061638;28;20214;-72
2023/04/16 05:55:08;;;;;;;30.23;8.00;;;;;;;;;;5060968;28;20032;-74
2023/04/16 05:57:33;;;;;;;24.50;7.10;;;;;;;;;;5055466;28;20120;-73
2023/04/16 05:59:59;;;;;;;29.83;8.20;;;;;;;;;;5056660;28;20028;-72
2023/04/16 06:02:24;;;;;;;24.90;7.68;;;;;;;;;;5056616;28;20054;-74
2023/04/16 06:04:49;;;;;;;21.08;8.13;;;;;;;;;;5057115;28;20044;-75
2023/04/16 06:07:15;;;;;;;26.90;8.88;;;;;;;;;;5040979;28;20164;-75
2023/04/16 06:09:40;;;;;;;27.10;8.93;;;;;;;;;;5037686;28;20518;-74
2023/04/16 06:12:05;;;;;;;30.05;9.27;;;;;;;;;;5060670;28;20040;-77
2023/04/16 06:14:31;;;;;;;23.73;8.90;;;;;;;;;;5040958;28;20039;-77
2023/04/16 06:16:58;;;;;;;28.35;9.20;;;;;;;;;;5029432;28;20067;-76
2023/04/16 06:19:26;;;;;;;22.45;8.32;;;;;;;;;;5057506;28;20048;-77
2023/04/16 06:21:51;;;;;;;24.50;7.97;;;;;;;;;;5038406;28;20528;-77
2023/04/16 06:24:17;;;;;;;28.05;9.52;;;;;;;;;;5061540;28;20158;-77
2023/04/16 06:26:42;;;;;;;29.45;11.60;;;;;;;;;;5053990;28;20081;-77
2023/04/16 06:29:08;;;;;;;28.45;10.38;;;;;;;;;;5066376;28;20452;-74
2023/04/16 06:31:38;;;;;;;42.88;11.32;;;;;;;;;;5054891;28;20051;-78
2023/04/16 06:34:03;;;;;;;37.80;11.13;;;;;;;;;;5062200;28;20043;-76
2023/04/16 06:36:28;;;;;;;34.47;9.85;;;;;;;;;;5043761;28;20293;-78
2023/04/16 06:38:54;;;;;;;23.77;10.05;;;;;;;;;;5064936;28;20047;-77
2023/04/16 06:41:20;;;;;;;25.02;9.45;;;;;;;;;;5063457;28;20043;-75
2023/04/16 06:43:45;;;;;;;21.38;8.80;;;;;;;;;;5061518;28;20039;-77
2023/04/16 06:46:10;;;;;;;22.95;8.75;;;;;;;;;;5059628;28;20068;-77
2023/04/16 06:48:36;;;;;;;20.48;8.13;;;;;;;;;;5042383;28;20150;-74
2023/04/16 06:51:01;;;;;;;24.73;8.18;;;;;;;;;;5061223;28;20422;-75
2023/04/16 06:53:29;;;;;;;24.90;9.35;;;;;;;;;;5061166;28;20043;-72
2023/04/16 06:55:54;;;;;;;31.52;9.68;;;;;;;;;;5039190;28;20044;-72
2023/04/16 06:58:19;;;;;;;25.00;8.93;;;;;;;;;;5041601;28;20061;-72
2023/04/16 07:00:45;;;;;;;31.40;9.43;;;;;;;;;;5026603;28;20045;-72
2023/04/16 07:03:10;;;;;;;37.65;10.68;;;;;;;;;;5058173;28;20223;-72
2023/04/16 07:05:35;;;;;;;28.52;9.48;;;;;;;;;;5040229;28;20040;-73
2023/04/16 07:08:03;;;;;;;24.58;9.73;;;;;;;;;;5038480;28;20164;-72
2023/04/16 07:10:28;;;;;;;26.33;10.13;;;;;;;;;;5058565;28;20123;-74
2023/04/16 07:12:54;;;;;;;32.85;10.00;;;;;;;;;;5041794;28;20549;-72
2023/04/16 07:15:21;;;;;;;24.95;8.55;;;;;;;;;;5061089;28;20275;-72
2023/04/16 07:17:48;;;;;;;29.35;9.10;;;;;;;;;;5060466;28;20776;-73
2023/04/16 07:20:14;;;;;;;32.30;9.48;;;;;;;;;;5057260;28;20043;-72
2023/04/16 07:22:40;;;;;;;28.00;9.30;;;;;;;;;;5041260;28;20035;-73
2023/04/16 07:25:08;;;;;;;32.33;9.48;;;;;;;;;;5058211;28;20028;-72
2023/04/16 07:27:33;;;;;;;28.35;10.25;;;;;;;;;;5041963;28;20115;-73
2023/04/16 07:29:58;;;;;;;29.40;9.40;;;;;;;;;;5063913;28;20112;-73
2023/04/16 07:32:24;;;;;;;22.35;8.57;;;;;;;;;;5041234;28;20042;-72
2023/04/16 07:34:49;;;;;;;26.45;8.15;;;;;;;;;;5038902;28;20123;-74
2023/04/16 07:37:14;;;;;;;26.00;9.25;;;;;;;;;;5061300;28;20059;-71
2023/04/16 07:39:42;;;;;;;24.75;7.70;;;;;;;;;;5060294;28;20063;-71
2023/04/16 07:42:07;;;;;;;17.40;7.07;;;;;;;;;;5058744;28;20405;-71
2023/04/16 07:44:32;;;;;;;26.02;9.15;;;;;;;;;;5042720;28;20119;-72
2023/04/16 07:46:58;;;;;;;24.40;8.80;;;;;;;;;;5036661;28;20451;-71
2023/04/16 07:49:23;;;;;;;28.23;9.02;;;;;;;;;;5061185;28;21951;-74
2023/04/16 07:51:51;;;;;;;21.50;8.98;;;;;;;;;;5039149;28;20036;-72
2023/04/16 07:54:19;;;;;;;27.67;9.75;;;;;;;;;;5057738;28;20055;-72
2023/04/16 07:56:44;;;;;;;25.38;7.93;;;;;;;;;;5040848;28;20060;-73
2023/04/16 07:59:12;;;;;;;28.75;9.18;;;;;;;;;;5057233;28;20042;-72
2023/04/16 08:01:37;;;;;;;24.83;9.32;;;;;;;;;;5056758;28;20045;-71
2023/04/16 08:04:05;;;;;;;23.13;9.50;;;;;;;;;;5036352;28;20040;-72
2023/04/16 08:06:30;;;;;;;23.70;9.57;;;;;;;;;;5058262;28;20035;-72
2023/04/16 08:08:55;;;;;;;20.05;9.48;;;;;;;;;;5057385;28;20159;-73
2023/04/16 08:11:21;;;;;;;37.40;10.75;;;;;;;;;;5039066;28;20460;-72
2023/04/16 08:13:46;;;;;;;23.23;10.10;;;;;;;;;;5056589;28;20047;-72
2023/04/16 08:16:13;;;;;;;28.95;12.00;;;;;;;;;;5037251;28;20144;-72
2023/04/16 08:18:39;;;;;;;30.15;11.00;;;;;;;;;;5057778;28;20796;-72
2023/04/16 08:21:06;;;;;;;31.02;12.02;;;;;;;;;;5036541;28;20036;-72
2023/04/16 08:23:32;;;;;;;32.60;11.65;;;;;;;;;;5058098;28;20055;-72
2023/04/16 08:25:57;;;;;;;35.80;11.30;;;;;;;;;;5057203;28;20053;-72
2023/04/16 08:28:22;;;;;;;29.65;12.05;;;;;;;;;;5055507;28;20052;-73
2023/04/16 08:30:47;;;;;;;32.63;11.63;;;;;;;;;;5060564;28;20040;-73
2023/04/16 08:33:13;;;;;;;36.58;12.80;;;;;;;;;;5034773;28;20040;-73
2023/04/16 08:35:41;;;;;;;28.27;12.75;;;;;;;;;;5058350;28;20058;-73
2023/04/16 08:38:09;;;;;;;38.42;12.43;;;;;;;;;;5059786;28;20425;-71
2023/04/16 08:40:38;;;;;;;27.70;10.90;;;;;;;;;;5038183;28;20250;-72
2023/04/16 08:43:06;;;;;;;30.58;10.70;;;;;;;;;;5060954;28;20040;-71
2023/04/16 08:45:33;;;;;;;36.20;10.98;;;;;;;;;;5064283;28;20534;-74
2023/04/16 08:47:59;;;;;;;26.08;10.48;;;;;;;;;;5065216;28;20060;-72
2023/04/16 08:50:27;;;;;;;30.40;10.45;;;;;;;;;;5046710;28;20197;-71
2023/04/16 08:53:02;;;;;;;25.27;10.20;;;;;;;;;;5065622;28;20129;-72
2023/04/16 08:55:34;;;;;;;25.85;9.40;;;;;;;;;;5065766;28;20036;-72
2023/04/16 08:58:00;;;;;;;30.95;11.05;;;;;;;;;;5063682;28;20158;-72
2023/04/16 09:00:27;;;;;;;27.38;9.93;;;;;;;;;;5034565;28;20331;-71
2023/04/16 09:02:52;;;;;;;27.02;10.18;;;;;;;;;;5068160;28;20032;-71
2023/04/16 09:05:24;;;;;;;24.80;9.55;;;;;;;;;;5062424;28;20033;-71
2023/04/16 09:07:52;;;;;;;25.27;10.38;;;;;;;;;;5062624;28;20056;-73
2023/04/16 09:10:21;;;;;;;23.25;9.57;;;;;;;;;;5063012;28;20056;-71
2023/04/16 09:12:46;;;;;;;15.98;9.43;;;;;;;;;;5067349;28;20040;-73
2023/04/16 09:15:12;;;;;;;16.48;8.45;;;;;;;;;;5073580;28;20028;-73
2023/04/16 09:17:40;;;;;;;17.92;8.38;;;;;;;;;;5077975;28;22688;-73
2023/04/16 09:20:07;;;;;;;15.82;7.47;;;;;;;;;;5062993;28;20036;-73
2023/04/16 09:22:33;;;;;;;19.92;7.57;;;;;;;;;;5066696;28;20032;-73
2023/04/16 09:25:01;;;;;;;16.67;7.20;;;;;;;;;;5071767;28;20035;-74
2023/04/16 09:27:26;;;;;;;17.27;7.63;;;;;;;;;;5051255;28;20032;-72
2023/04/16 09:29:51;;;;;;;21.05;8.35;;;;;;;;;;5068055;28;20286;-73
2023/04/16 09:32:23;;;;;;;21.27;8.13;;;;;;;;;;5068347;28;20488;-73
2023/04/16 09:35:00;;;;;;;21.52;8.05;;;;;;;;;;5067846;28;20089;-73
2023/04/16 09:37:28;;;;;;;21.83;8.43;;;;;;;;;;5068163;28;20036;-74
2023/04/16 09:39:57;;;;;;;20.15;8.48;;;;;;;;;;5069230;28;20488;-74
2023/04/16 09:42:24;;;;;;;25.52;9.00;;;;;;;;;;5069459;28;20066;-74
2023/04/16 09:44:50;;;;;;;22.55;10.05;;;;;;;;;;5068075;28;20414;-74
2023/04/16 09:47:15;;;;;;;28.75;10.50;;;;;;;;;;5071339;28;20382;-74
2023/04/16 09:49:42;;;;;;;25.63;9.70;;;;;;;;;;5078018;28;20041;-75
2023/04/16 09:52:19;;;;;;;22.88;8.93;;;;;;;;;;5070284;28;20216;-75
2023/04/16 09:54:50;;;;;;;25.33;9.40;;;;;;;;;;5053761;28;20036;-74
2023/04/16 09:57:21;;;;;;;25.08;9.30;;;;;;;;;;5064162;28;20043;-73
2023/04/16 09:59:56;;;;;;;21.20;9.00;;;;;;;;;;5067283;28;20086;-75
2023/04/16 10:02:25;;;;;;;24.30;8.52;;;;;;;;;;5051441;28;20103;-72
2023/04/16 10:04:51;;;;;;;20.70;8.95;;;;;;;;;;5077021;28;20036;-75
2023/04/16 10:07:17;;;;;;;21.00;9.05;;;;;;;;;;5075033;28;20063;-73
2023/04/16 10:09:43;;;;;;;22.92;8.68;;;;;;;;;;5063598;28;20115;-73
2023/04/16 10:12:11;;;;;;;22.73;8.82;;;;;;;;;;5060055;28;20744;-72
2023/04/16 10:14:40;;;;;;;30.10;10.07;;;;;;;;;;5055873;28;20043;-75
2023/04/16 10:17:05;;;;;;;21.95;9.02;;;;;;;;;;5059074;28;20114;-79
2023/04/16 10:19:33;;;;;;;26.73;9.88;;;;;;;;;;5061120;28;20432;-76
2023/04/16 10:22:01;;;;;;;24.98;9.57;;;;;;;;;;5056004;28;20036;-75
2023/04/16 10:24:30;;;;;;;28.33;9.10;;;;;;;;;;5059370;28;20061;-77
2023/04/16 10:26:57;;;;;;;30.77;9.98;;;;;;;;;;5059480;28;21919;-75
2023/04/16 10:29:24;;;;;;;28.05;9.75;;;;;;;;;;5055531;28;20131;-77
2023/04/16 10:31:50;;;;;;;31.70;10.15;;;;;;;;;;5052482;28;20262;-77
2023/04/16 10:34:15;;;;;;;30.90;10.35;;;;;;;;;;5035683;28;20047;-75
2023/04/16 10:36:41;;;;;;;26.00;10.50;;;;;;;;;;5055130;28;20120;-75
2023/04/16 10:39:13;;;;;;;27.40;10.55;;;;;;;;;;5039100;28;20028;-75
2023/04/16 10:41:39;;;;;;;34.22;11.00;;;;;;;;;;5013809;28;21324;-75
2023/04/16 10:44:05;;;;;;;28.08;9.60;;;;;;;;;;5054765;28;20048;-74
2023/04/16 10:46:40;;;;;;;27.92;10.18;;;;;;;;;;5053596;28;20044;-73
2023/04/16 10:49:18;;;;;;;23.52;9.95;;;;;;;;;;5038207;28;20302;-75
2023/04/16 10:51:53;;;;;;;28.77;10.77;;;;;;;;;;5056723;28;20036;-76
2023/04/16 10:54:21;;;;;;;28.83;10.45;;;;;;;;;;5059024;28;20043;-76
2023/04/16 10:56:47;;;;;;;26.02;10.90;;;;;;;;;;5055074;28;20459;-75
2023/04/16 10:59:17;;;;;;;33.15;11.13;;;;;;;;;;5036446;28;20044;-77
2023/04/16 11:01:45;;;;;;;33.60;11.85;;;;;;;;;;5038940;28;20100;-78
2023/04/16 11:04:19;;;;;;;33.58;12.75;;;;;;;;;;5038990;28;20059;-74
2023/04/16 11:07:00;;;;;;;32.10;12.30;;;;;;;;;;5058794;28;20046;-74
2023/04/16 11:09:48;;;;;;;35.70;12.37;;;;;;;;;;5060516;28;20071;-76
2023/04/16 11:12:15;;;;;;;37.60;12.73;;;;;;;;;;5051775;28;20278;-75
2023/04/16 11:14:40;;;;;;;38.95;12.77;;;;;;;;;;5044091;28;22530;-74
2023/04/16 11:17:06;;;;;;;36.45;12.10;;;;;;;;;;5037161;28;20054;-75
2023/04/16 11:19:32;;;;;;;36.38;12.18;;;;;;;;;;5034618;28;20050;-71
2023/04/16 11:21:58;;;;;;;35.80;12.63;;;;;;;;;;5023660;28;20041;-74
2023/04/16 11:24:23;;;;;;;32.88;12.65;;;;;;;;;;5036179;28;20032;-76
2023/04/16 11:26:51;;;;;;;32.33;11.52;;;;;;;;;;5036494;28;20032;-76
2023/04/16 11:29:17;;;;;;;30.30;12.45;;;;;;;;;;5056938;28;20054;-76
2023/04/16 11:31:48;;;;;;;35.10;12.40;;;;;;;;;;5040512;28;20032;-75
2023/04/16 11:34:14;;;;;;;28.00;10.85;;;;;;;;;;5043606;28;20036;-75
2023/04/16 11:36:46;;;;;;;31.95;10.25;;;;;;;;;;5057223;28;20100;-75
2023/04/16 11:39:11;;;;;;;;;;;;;;;;;;5038595;28;20127;-76
2023/04/16 11:41:42;;;;;;;31.88;11.45;;;;;;;;;;5059679;28;19971;-74
2023/04/16 11:44:18;;;;;;;30.20;11.55;;;;;;;;;;5039011;28;20036;-76
2023/04/16 11:46:43;;;;;;;33.50;11.10;;;;;;;;;;5035787;28;20037;-73
2023/04/16 11:49:08;;;;;;;27.17;10.45;;;;;;;;;;5053686;28;20036;-75
2023/04/16 11:51:44;;;;;;;26.08;10.02;;;;;;;;;;5058830;28;20555;-73
2023/04/16 11:54:19;;;;;;;21.77;9.18;;;;;;;;;;5036288;28;20094;-74
2023/04/16 11:56:46;;;;;;;27.63;9.85;;;;;;;;;;5034511;28;20029;-74
2023/04/16 11:59:16;;;;;;;27.48;9.75;;;;;;;;;;5021026;28;20043;-75
2023/04/16 12:01:44;;;;;;;35.55;9.95;;;;;;;;;;5020692;28;20037;-75
2023/04/16 12:04:10;;;;;;;24.13;9.85;;;;;;;;;;5035144;28;20047;-75
2023/04/16 12:06:35;;;;;;;25.75;9.85;;;;;;;;;;5058041;28;20103;-75
2023/04/16 12:09:22;;;;;;;28.65;9.88;;;;;;;;;;5051577;28;20106;-73
2023/04/16 12:11:47;;;;;;;31.77;9.90;;;;;;;;;;5034983;28;20162;-75
2023/04/16 12:14:12;;;;;;;30.88;9.32;;;;;;;;;;5055648;28;20043;-76
2023/04/16 12:16:40;;;;;;;28.15;9.98;;;;;;;;;;5053915;28;20931;-73
2023/04/16 12:19:05;;;;;;;27.27;10.50;;;;;;;;;;5055142;28;20044;-74
2023/04/16 12:21:40;;;;;;;29.08;10.15;;;;;;;;;;5019558;28;20047;-75
2023/04/16 12:24:06;;;;;;;30.35;10.98;;;;;;;;;;5057485;28;20040;-74
2023/04/16 12:26:42;;;;;;;27.25;11.48;;;;;;;;;;5042223;28;20052;-70
2023/04/16 12:29:13;;;;;;;24.25;10.50;;;;;;;;;;5039629;28;20052;-73
2023/04/16 12:31:39;;;;;;;27.88;10.27;;;;;;;;;;5038175;28;20870;-76
2023/04/16 12:34:05;;;;;;;22.10;9.45;;;;;;;;;;5059749;28;20048;-74
2023/04/16 12:36:30;;;;;;;23.30;9.20;;;;;;;;;;5054701;28;20538;-74
2023/04/16 12:38:55;;;;;;;24.98;9.48;;;;;;;;;;5057360;28;20671;-74
2023/04/16 12:41:23;;;;;;;30.08;9.95;;;;;;;;;;5058708;28;20039;-79
2023/04/16 12:43:48;;;;;;;26.40;10.07;;;;;;;;;;5054157;28;20050;-74
2023/04/16 12:46:14;;;;;;;25.00;10.02;;;;;;;;;;5058203;28;20037;-72
2023/04/16 12:48:40;;;;;;;30.60;10.52;;;;;;;;;;5060323;28;20044;-74
2023/04/16 12:51:06;;;;;;;30.10;10.25;;;;;;;;;;5035334;28;20032;-73
2023/04/16 12:53:31;;;;;;;33.75;11.88;;;;;;;;;;5059751;28;20412;-73
2023/04/16 12:55:57;;;;;;;22.70;10.50;;;;;;;;;;5059010;28;20047;-73
2023/04/16 12:58:22;;;;;;;35.15;11.18;;;;;;;;;;5060758;28;20028;-73
2023/04/16 13:00:49;;;;;;;29.48;9.30;;;;;;;;;;5059642;28;20510;-72
2023/04/16 13:03:15;;;;;;;31.98;10.60;;;;;;;;;;5056647;28;20032;-73
2023/04/16 13:05:40;;;;;;;32.03;11.95;;;;;;;;;;5058807;28;20051;-74
2023/04/16 13:08:08;;;;;;;31.50;11.38;;;;;;;;;;5058410;28;20085;-72
2023/04/16 13:10:34;;;;;;;29.27;9.95;;;;;;;;;;5039301;28;21911;-73
2023/04/16 13:12:59;;;;;;;26.00;9.73;;;;;;;;;;5060387;28;20028;-73
2023/04/16 13:15:27;;;;;;;23.67;10.90;;;;;;;;;;5061213;28;20032;-73
2023/04/16 13:17:53;;;;;;;23.55;10.10;;;;;;;;;;5062590;28;20523;-71
2023/04/16 13:20:18;;;;;;;24.90;10.25;;;;;;;;;;5044138;28;20043;-73
2023/04/16 13:22:46;;;;;;;28.45;10.35;;;;;;;;;;5027925;28;20119;-73
2023/04/16 13:25:11;;;;;;;28.52;9.65;;;;;;;;;;5061042;28;20223;-74
2023/04/16 13:27:36;;;;;;;25.60;11.30;;;;;;;;;;5061528;28;20354;-72
2023/04/16 13:30:04;;;;;;;30.35;10.57;;;;;;;;;;5060904;28;20777;-73
2023/04/16 13:32:30;;;;;;;33.13;10.82;;;;;;;;;;5061544;28;20130;-71
2023/04/16 13:34:58;;;;;;;28.10;10.40;;;;;;;;;;5063109;28;20044;-73
2023/04/16 13:37:23;;;;;;;29.27;12.30;;;;;;;;;;5060541;28;20106;-72
2023/04/16 13:39:48;;;;;;;31.40;12.13;;;;;;;;;;5065017;28;20028;-73
2023/04/16 13:42:14;;;;;;;36.80;11.60;;;;;;;;;;5059588;28;20043;-72
2023/04/16 13:44:39;;;;;;;29.63;12.50;;;;;;;;;;5062093;28;20287;-73
2023/04/16 13:47:05;;;;;;;29.40;12.13;;;;;;;;;;5063126;28;20051;-72
2023/04/16 13:49:32;;;;;;;30.50;12.13;;;;;;;;;;5063747;28;20517;-73
2023/04/16 13:51:57;;;;;;;29.05;11.85;;;;;;;;;;5045515;28;20051;-72
2023/04/16 13:54:22;;;;;;;27.65;12.57;;;;;;;;;;5063989;28;20036;-72
2023/04/16 13:56:48;;;;;;;29.13;11.38;;;;;;;;;;5063114;28;20087;-72
2023/04/16 13:59:15;;;;;;;28.38;12.57;;;;;;;;;;5067115;28;20318;-72
2023/04/16 14:01:43;;;;;;;21.67;10.93;;;;;;;;;;5062083;28;20032;-74
2023/04/16 14:04:08;;;;;;;23.58;12.00;;;;;;;;;;5061065;28;20062;-73
2023/04/16 14:06:33;;;;;;;25.63;11.95;;;;;;;;;;5062438;28;20036;-71
2023/04/16 14:09:01;;;;;;;28.23;11.82;;;;;;;;;;5066225;28;20046;-71
2023/04/16 14:11:26;;;;;;;26.75;11.68;;;;;;;;;;5064620;28;20036;-74
2023/04/16 14:13:51;;;;;;;28.05;12.10;;;;;;;;;;5062948;28;20032;-71
2023/04/16 14:16:17;;;;;;;32.08;12.30;;;;;;;;;;5062550;28;20048;-71
2023/04/16 14:18:43;;;;;;;32.75;12.18;;;;;;;;;;5062553;28;22631;-71
2023/04/16 14:21:08;;;;;;;33.38;12.82;;;;;;;;;;5061683;28;20032;-72
2023/04/16 14:23:34;;;;;;;30.45;13.27;;;;;;;;;;5058849;28;20032;-71